createdAt,value
2023-05-09T00:00:11.253Z,3.93
2023-05-09T00:03:14.411Z,2.03
2023-05-09T00:06:17.498Z,1.58
2023-05-09T00:09:19.831Z,1.98
2023-05-09T00:12:22.186Z,1.45
2023-05-09T00:15:25.731Z,1.23
2023-05-09T00:18:31.143Z,2.80
2023-05-09T00:21:34.260Z,1.30
2023-05-09T00:24:36.558Z,1.55
2023-05-09T00:27:38.904Z,1.52
2023-05-09T00:30:41.265Z,1.37
2023-05-09T00:33:43.684Z,1.40
2023-05-09T00:36:46.161Z,1.38
2023-05-09T00:39:48.776Z,2.35
2023-05-09T00:42:51.585Z,1.45
2023-05-09T00:45:54.183Z,1.20
2023-05-09T00:48:56.958Z,1.10
2023-05-09T00:51:59.393Z,1.48
2023-05-09T00:55:02.378Z,1.10
2023-05-09T00:58:04.807Z,2.40
2023-05-09T01:01:08.415Z,2.03
2023-05-09T01:04:12.396Z,1.27
2023-05-09T01:07:30.070Z,1.27
2023-05-09T01:10:44.940Z,1.58
2023-05-09T01:13:56.481Z,1.20
2023-05-09T01:17:24.661Z,1.53
2023-05-09T01:20:51.483Z,1.80
2023-05-09T01:24:17.635Z,1.65
2023-05-09T01:27:45.314Z,1.42
2023-05-09T01:30:51.765Z,1.40
2023-05-09T01:33:57.251Z,2.07
2023-05-09T01:37:01.022Z,2.47
2023-05-09T01:40:31.346Z,1.58
2023-05-09T01:43:33.997Z,1.25
2023-05-09T01:46:38.252Z,2.08
2023-05-09T01:49:41.737Z,1.40
2023-05-09T01:52:44.824Z,1.33
2023-05-09T01:55:47.445Z,1.25
2023-05-09T01:58:51.276Z,2.13
2023-05-09T02:01:55.382Z,2.22
2023-05-09T02:04:57.957Z,2.20
2023-05-09T02:08:00.956Z,1.37
2023-05-09T02:11:03.417Z,2.33
2023-05-09T02:14:06.478Z,1.20
2023-05-09T02:17:10.827Z,2.20
2023-05-09T02:20:13.594Z,1.20
2023-05-09T02:23:16.068Z,1.10
2023-05-09T02:26:18.575Z,2.13
2023-05-09T02:29:22.223Z,1.45
2023-05-09T02:32:28.223Z,1.77
2023-05-09T02:35:30.688Z,1.60
2023-05-09T02:38:33.108Z,1.53
2023-05-09T02:41:35.658Z,1.38
2023-05-09T02:44:38.917Z,1.23
2023-05-09T02:47:41.406Z,1.20
2023-05-09T02:50:44.380Z,1.43
2023-05-09T02:53:46.836Z,1.43
2023-05-09T02:56:49.295Z,1.73
2023-05-09T02:59:51.768Z,1.25
2023-05-09T03:02:54.840Z,1.00
2023-05-09T03:05:57.304Z,2.27
2023-05-09T03:08:59.757Z,1.20
2023-05-09T03:12:03.977Z,1.17
2023-05-09T03:15:07.497Z,1.08
2023-05-09T03:18:10.123Z,2.55
2023-05-09T03:21:12.867Z,1.57
2023-05-09T03:24:15.975Z,2.67
2023-05-09T03:27:18.905Z,1.52
2023-05-09T03:30:22.090Z,1.50
2023-05-09T03:33:25.445Z,1.17
2023-05-09T03:36:28.779Z,1.70
2023-05-09T03:39:31.801Z,1.20
2023-05-09T03:42:34.198Z,1.88
2023-05-09T03:45:38.468Z,1.88
2023-05-09T03:48:43.037Z,1.00
2023-05-09T03:51:45.507Z,1.40
2023-05-09T03:54:51.253Z,1.13
2023-05-09T03:57:54.443Z,0.93
2023-05-09T04:00:57.680Z,1.35
2023-05-09T04:04:01.714Z,1.42
2023-05-09T04:07:07.763Z,1.53
2023-05-09T04:10:11.575Z,1.60
2023-05-09T04:13:14.040Z,1.70
2023-05-09T04:16:17.189Z,4.28
2023-05-09T04:19:19.651Z,5.43
2023-05-09T04:22:22.026Z,4.57
2023-05-09T04:25:26.232Z,2.33
2023-05-09T04:28:28.785Z,4.07
2023-05-09T04:31:32.319Z,3.22
2023-05-09T04:34:36.139Z,3.35
2023-05-09T04:37:45.504Z,3.87
2023-05-09T04:40:47.919Z,3.70
2023-05-09T04:43:50.762Z,3.33
2023-05-09T04:46:55.197Z,3.78
2023-05-09T04:49:57.715Z,4.75
2023-05-09T04:53:00.168Z,4.03
2023-05-09T04:56:02.987Z,2.90
2023-05-09T04:59:07.101Z,1.80
2023-05-09T05:02:10.394Z,2.17
2023-05-09T05:05:13.223Z,2.28
2023-05-09T05:08:18.296Z,3.97
2023-05-09T05:11:21.638Z,7.10
2023-05-09T05:14:24.401Z,4.85
2023-05-09T05:17:29.547Z,4.88
2023-05-09T05:20:34.518Z,3.20
2023-05-09T05:23:37.220Z,4.00
2023-05-09T05:26:39.761Z,5.40
2023-05-09T05:29:42.365Z,6.53
2023-05-09T05:32:44.961Z,5.90
2023-05-09T05:35:49.219Z,9.38
2023-05-09T05:38:51.709Z,5.37
2023-05-09T05:41:54.331Z,5.93
2023-05-09T05:44:56.909Z,5.82
2023-05-09T05:47:59.924Z,13.68
2023-05-09T05:51:02.669Z,6.32
2023-05-09T05:54:07.543Z,13.60
2023-05-09T05:57:11.822Z,10.67
2023-05-09T06:00:15.396Z,8.10
2023-05-09T06:03:26.139Z,9.68
2023-05-09T06:06:37.492Z,9.13
2023-05-09T06:09:41.198Z,5.63
2023-05-09T06:12:44.078Z,7.07
2023-05-09T06:15:46.736Z,11.43
2023-05-09T06:18:49.420Z,9.32
2023-05-09T06:21:52.029Z,10.23
2023-05-09T06:28:24.949Z,7.27
2023-05-09T06:31:28.516Z,6.43
2023-05-09T06:34:58.282Z,8.18
2023-05-09T06:38:00.861Z,11.32
2023-05-09T06:41:03.868Z,8.63
2023-05-09T06:44:28.615Z,8.17
2023-05-09T06:47:36.852Z,4.22
2023-05-09T06:56:48.707Z,6.93
2023-05-09T06:59:22.768Z,5.90
2023-05-09T07:02:27.071Z,8.60
2023-05-09T07:05:29.756Z,14.52
2023-05-09T07:08:32.252Z,12.32
2023-05-09T07:11:36.192Z,12.73
2023-05-09T07:14:40.734Z,19.93
2023-05-09T07:17:46.988Z,23.70
2023-05-09T07:20:49.527Z,17.40
2023-05-09T07:23:51.998Z,17.27
2023-05-09T07:26:54.667Z,10.70
2023-05-09T07:29:57.061Z,13.63
2023-05-09T07:32:59.739Z,14.63
2023-05-09T07:36:02.655Z,13.25
2023-05-09T07:39:08.432Z,14.57
2023-05-09T07:42:11.008Z,9.15
2023-05-09T07:45:13.627Z,11.90
2023-05-09T07:48:16.465Z,14.77
2023-05-09T07:51:18.875Z,24.25
2023-05-09T07:54:21.541Z,17.23
2023-05-09T07:57:26.468Z,13.27
2023-05-09T08:00:29.093Z,13.90
2023-05-09T08:03:31.648Z,16.60
2023-05-09T08:06:34.158Z,14.40
2023-05-09T08:09:39.563Z,12.27
2023-05-09T08:12:42.222Z,11.50
2023-05-09T08:15:44.907Z,10.67
2023-05-09T08:18:47.637Z,11.40
2023-05-09T08:21:50.148Z,14.20
2023-05-09T08:24:52.595Z,13.10
2023-05-09T08:27:55.212Z,10.00
2023-05-09T08:30:57.918Z,11.73
2023-05-09T08:34:03.632Z,12.33
2023-05-09T08:37:06.288Z,10.05
2023-05-09T08:40:10.212Z,15.02
2023-05-09T08:43:13.473Z,13.05
2023-05-09T08:46:16.708Z,12.13
2023-05-09T08:50:01.170Z,11.80
2023-05-09T08:53:03.829Z,13.35
2023-05-09T08:56:06.623Z,9.50
2023-05-09T08:59:09.949Z,12.35
2023-05-09T09:02:14.565Z,11.10
2023-05-09T09:05:39.295Z,11.23
2023-05-09T09:08:40.561Z,11.73
2023-05-09T09:11:43.625Z,13.13
2023-05-09T09:14:49.449Z,13.18
2023-05-09T09:17:56.838Z,10.00
2023-05-09T09:21:07.327Z,13.23
2023-05-09T09:24:13.122Z,13.90
2023-05-09T09:27:15.716Z,11.95
2023-05-09T09:30:18.607Z,9.25
2023-05-09T09:33:26.267Z,11.63
2023-05-09T09:36:29.765Z,7.07
2023-05-09T09:39:32.251Z,11.23
2023-05-09T09:42:44.426Z,12.57
2023-05-09T09:45:51.503Z,12.57
2023-05-09T09:48:57.773Z,9.40
2023-05-09T09:52:00.476Z,8.87
2023-05-09T09:55:03.404Z,10.90
2023-05-09T09:58:17.214Z,13.25
2023-05-09T10:01:20.919Z,8.73
2023-05-09T10:04:24.134Z,10.37
2023-05-09T10:07:27.090Z,11.17
2023-05-09T10:10:34.775Z,17.25
2023-05-09T10:13:38.607Z,9.82
2023-05-09T10:16:44.658Z,15.70
2023-05-09T10:19:47.890Z,11.63
2023-05-09T10:22:51.275Z,6.13
2023-05-09T10:26:42.437Z,5.53
2023-05-09T10:29:48.411Z,17.17
2023-05-09T10:33:03.929Z,14.70
2023-05-09T10:36:07.158Z,13.63
2023-05-09T10:39:10.012Z,9.80
2023-05-09T10:42:14.125Z,9.15
2023-05-09T10:45:16.874Z,8.85
2023-05-09T10:48:19.891Z,14.65
2023-05-09T10:51:24.705Z,11.50
2023-05-09T10:54:33.721Z,9.80
2023-05-09T10:57:39.533Z,9.05
2023-05-09T11:00:42.565Z,14.55
2023-05-09T11:04:00.032Z,12.68
2023-05-09T11:07:03.181Z,15.00
2023-05-09T11:10:09.971Z,7.60
2023-05-09T11:13:12.502Z,9.48
2023-05-09T11:16:14.970Z,7.18
2023-05-09T11:19:37.223Z,12.35
2023-05-09T11:22:42.426Z,12.63
2023-05-09T11:25:49.402Z,9.40
2023-05-09T11:28:53.797Z,13.43
2023-05-09T11:32:07.334Z,8.55
2023-05-09T11:35:15.646Z,11.65
2023-05-09T11:38:22.053Z,7.17
2023-05-09T11:41:24.717Z,8.93
2023-05-09T11:44:28.213Z,10.95
2023-05-09T11:47:31.018Z,10.25
2023-05-09T11:50:36.352Z,10.65
2023-05-09T11:53:48.201Z,10.30
2023-05-09T11:56:53.596Z,6.03
2023-05-09T11:59:58.676Z,9.82
2023-05-09T12:03:01.223Z,7.18
2023-05-09T12:06:03.766Z,12.77
2023-05-09T12:09:06.712Z,10.23
2023-05-09T12:12:13.982Z,11.83
2023-05-09T12:15:17.635Z,8.45
2023-05-09T12:18:20.477Z,4.07
2023-05-09T12:21:23.112Z,11.70
2023-05-09T12:24:30.005Z,12.83
2023-05-09T12:27:33.229Z,11.80
2023-05-09T12:30:36.107Z,7.93
2023-05-09T12:33:38.934Z,7.20
2023-05-09T12:36:50.745Z,10.93
2023-05-09T12:40:15.483Z,6.20
2023-05-09T12:43:18.235Z,23.30
2023-05-09T12:46:22.087Z,5.93
2023-05-09T12:49:25.344Z,6.28
2023-05-09T12:52:35.362Z,5.13
2023-05-09T12:55:41.735Z,6.30
2023-05-09T12:58:54.556Z,9.53
2023-05-09T13:01:58.697Z,6.97
2023-05-09T13:05:08.298Z,7.75
2023-05-09T13:08:11.487Z,6.10
2023-05-09T13:11:16.641Z,4.97
2023-05-09T13:14:21.816Z,5.13
2023-05-09T13:17:24.300Z,6.10
2023-05-09T13:20:26.722Z,11.35
2023-05-09T13:23:29.152Z,6.28
2023-05-09T13:26:31.750Z,6.03
2023-05-09T13:29:34.118Z,4.63
2023-05-09T13:32:39.287Z,5.80
2023-05-09T13:35:41.825Z,6.32
2023-05-09T13:38:45.716Z,4.10
2023-05-09T13:41:48.823Z,7.33
2023-05-09T13:44:51.288Z,7.27
2023-05-09T13:47:53.763Z,6.68
2023-05-09T13:50:57.876Z,5.97
2023-05-09T13:54:00.221Z,5.55
2023-05-09T13:57:05.574Z,6.60
2023-05-09T14:00:08.768Z,6.50
2023-05-09T14:03:15.103Z,6.13
2023-05-09T14:06:17.483Z,6.85
2023-05-09T14:09:22.254Z,7.50
2023-05-09T14:12:24.660Z,5.10
2023-05-09T14:15:27.063Z,8.90
2023-05-09T14:18:29.499Z,13.25
2023-05-09T14:21:31.897Z,5.60
2023-05-09T14:24:36.129Z,5.30
2023-05-09T14:27:38.697Z,7.57
2023-05-09T14:30:41.287Z,7.27
2023-05-09T14:33:44.155Z,6.30
2023-05-09T14:36:46.852Z,6.25
2023-05-09T14:39:49.807Z,6.00
2023-05-09T14:42:52.178Z,7.10
2023-05-09T14:45:55.117Z,4.83
2023-05-09T14:49:03.991Z,8.80
2023-05-09T14:52:06.410Z,6.20
2023-05-09T14:55:09.294Z,6.28
2023-05-09T14:58:14.039Z,6.30
2023-05-09T15:01:16.554Z,5.30
2023-05-09T15:04:19.054Z,5.32
2023-05-09T15:07:21.549Z,5.20
2023-05-09T15:10:24.079Z,6.75
2023-05-09T15:13:26.571Z,5.63
2023-05-09T15:16:29.231Z,8.87
2023-05-09T15:19:32.497Z,6.90
2023-05-09T15:22:34.974Z,9.85
2023-05-09T15:25:37.323Z,7.57
2023-05-09T15:28:40.082Z,9.73
2023-05-09T15:31:42.734Z,9.70
2023-05-09T15:34:45.126Z,11.18
2023-05-09T15:37:47.495Z,13.07
2023-05-09T15:40:50.071Z,9.23
2023-05-09T15:43:52.764Z,8.90
2023-05-09T15:46:57.035Z,7.97
2023-05-09T15:49:59.449Z,8.05
2023-05-09T15:53:01.822Z,9.25
2023-05-09T15:56:04.520Z,6.10
2023-05-09T15:59:07.156Z,9.40
2023-05-09T16:02:09.558Z,8.17
2023-05-09T16:05:12.521Z,5.82
2023-05-09T16:08:14.983Z,5.20
2023-05-09T16:11:17.419Z,8.40
2023-05-09T16:14:20.222Z,7.10
2023-05-09T16:17:22.874Z,8.87
2023-05-09T16:20:25.254Z,4.10
2023-05-09T16:23:27.748Z,7.40
2023-05-09T16:26:30.644Z,8.65
2023-05-09T16:29:35.459Z,9.07
2023-05-09T16:32:38.292Z,6.70
2023-05-09T16:35:41.165Z,5.65
2023-05-09T16:38:43.704Z,8.07
2023-05-09T16:41:46.305Z,6.65
2023-05-09T16:44:49.083Z,9.13
2023-05-09T16:47:51.556Z,6.63
2023-05-09T16:50:54.070Z,7.35
2023-05-09T16:53:56.554Z,6.78
2023-05-09T16:56:58.934Z,11.38
2023-05-09T17:00:01.464Z,3.87
2023-05-09T17:03:03.929Z,4.53
2023-05-09T17:06:06.838Z,4.18
2023-05-09T17:09:09.318Z,7.97
2023-05-09T17:12:17.541Z,6.63
2023-05-09T17:15:20.090Z,4.30
2023-05-09T17:18:35.905Z,5.10
2023-05-09T17:21:41.537Z,4.22
2023-05-09T17:24:44.135Z,4.75
2023-05-09T17:27:46.570Z,6.85
2023-05-09T17:30:48.924Z,9.13
2023-05-09T17:33:51.341Z,3.90
2023-05-09T17:36:53.943Z,6.05
2023-05-09T17:39:56.460Z,5.28
2023-05-09T17:42:59.318Z,6.18
2023-05-09T17:46:01.819Z,4.20
2023-05-09T17:49:04.192Z,4.53
2023-05-09T17:52:06.933Z,6.93
2023-05-09T17:55:10.123Z,6.13
2023-05-09T17:58:12.860Z,5.28
2023-05-09T18:01:15.726Z,4.13
2023-05-09T18:04:19.073Z,4.40
2023-05-09T18:07:21.459Z,5.18
2023-05-09T18:10:23.832Z,5.22
2023-05-09T18:13:26.736Z,4.57
2023-05-09T18:16:29.367Z,5.13
2023-05-09T18:19:32.035Z,5.53
2023-05-09T18:22:34.603Z,4.57
2023-05-09T18:25:38.684Z,5.85
2023-05-09T18:28:41.445Z,8.50
2023-05-09T18:31:43.939Z,4.30
2023-05-09T18:34:48.542Z,5.63
2023-05-09T18:37:51.464Z,6.70
2023-05-09T18:40:54.088Z,4.57
2023-05-09T18:43:57.926Z,4.38
2023-05-09T18:47:00.594Z,4.43
2023-05-09T18:50:04.700Z,4.57
2023-05-09T18:53:07.549Z,5.78
2023-05-09T18:56:10.056Z,4.80
2023-05-09T18:59:13.795Z,4.30
2023-05-09T19:02:16.899Z,3.30
2023-05-09T19:05:20.586Z,5.17
2023-05-09T19:08:23.424Z,3.03
2023-05-09T19:11:25.854Z,3.10
2023-05-09T19:14:28.302Z,4.57
2023-05-09T19:17:31.781Z,3.37
2023-05-09T19:20:34.434Z,3.43
2023-05-09T19:23:36.967Z,4.53
2023-05-09T19:26:39.328Z,4.93
2023-05-09T19:29:41.801Z,4.63
2023-05-09T19:32:44.439Z,4.77
2023-05-09T19:35:47.057Z,4.07
2023-05-09T19:38:49.629Z,4.07
2023-05-09T19:41:52.248Z,4.15
2023-05-09T19:44:54.850Z,2.97
2023-05-09T19:47:59.068Z,3.57
2023-05-09T19:51:01.758Z,4.70
2023-05-09T19:54:04.763Z,5.55
2023-05-09T19:57:07.304Z,4.72
2023-05-09T20:00:10.118Z,3.53
2023-05-09T20:03:14.513Z,3.87
2023-05-09T20:06:17.164Z,5.17
2023-05-09T20:09:21.105Z,3.25
2023-05-09T20:12:23.615Z,4.45
2023-05-09T20:15:26.063Z,3.08
2023-05-09T20:18:28.634Z,6.07
2023-05-09T20:21:31.094Z,3.60
2023-05-09T20:24:33.717Z,3.47
2023-05-09T20:27:37.413Z,4.15
2023-05-09T20:30:39.941Z,3.58
2023-05-09T20:33:42.383Z,3.37
2023-05-09T20:36:52.190Z,4.23
2023-05-09T20:39:55.821Z,4.75
2023-05-09T20:42:58.181Z,4.15
2023-05-09T20:46:01.078Z,6.30
2023-05-09T20:49:06.551Z,1.83
2023-05-09T20:52:08.901Z,3.63
2023-05-09T20:55:11.457Z,2.47
2023-05-09T20:58:14.931Z,4.18
2023-05-09T21:01:17.439Z,2.05
2023-05-09T21:04:20.000Z,4.63
2023-05-09T21:07:22.792Z,2.23
2023-05-09T21:10:25.985Z,3.50
2023-05-09T21:13:28.523Z,3.78
2023-05-09T21:16:31.086Z,3.97
2023-05-09T21:19:34.261Z,2.30
2023-05-09T21:22:37.052Z,3.73
2023-05-09T21:25:39.438Z,3.90
2023-05-09T21:28:42.154Z,3.17
2023-05-09T21:31:44.606Z,4.00
2023-05-09T21:34:47.845Z,3.70
2023-05-09T21:37:52.639Z,3.53
2023-05-09T21:40:55.393Z,3.55
2023-05-09T21:43:57.794Z,2.45
2023-05-09T21:47:00.403Z,4.00
2023-05-09T21:50:04.254Z,4.17
2023-05-09T21:53:06.652Z,3.43
2023-05-09T21:56:09.117Z,3.22
2023-05-09T21:59:11.724Z,3.13
2023-05-09T22:02:14.556Z,3.10
2023-05-09T22:05:17.008Z,5.17
2023-05-09T22:08:19.474Z,2.77
2023-05-09T22:11:22.281Z,3.97
2023-05-09T22:14:24.785Z,3.50
2023-05-09T22:17:27.154Z,2.70
2023-05-09T22:20:29.575Z,2.10
2023-05-09T22:23:31.934Z,3.33
2023-05-09T22:26:34.500Z,2.50
2023-05-09T22:29:37.229Z,2.92
2023-05-09T22:32:40.307Z,3.50
2023-05-09T22:35:42.702Z,2.47
2023-05-09T22:38:45.031Z,2.97
2023-05-09T22:41:47.747Z,2.45
2023-05-09T22:44:50.833Z,3.25
2023-05-09T22:47:53.273Z,2.00
2023-05-09T22:50:55.840Z,2.50
2023-05-09T22:53:58.595Z,2.47
2023-05-09T22:57:01.015Z,2.70
2023-05-09T23:00:04.818Z,2.22
2023-05-09T23:03:07.486Z,4.15
2023-05-09T23:06:09.968Z,2.97
2023-05-09T23:09:12.463Z,2.17
2023-05-09T23:12:17.535Z,2.47
2023-05-09T23:15:27.747Z,2.33
2023-05-09T23:18:31.108Z,2.28
2023-05-09T23:21:33.883Z,3.20
2023-05-09T23:24:36.562Z,2.60
2023-05-09T23:27:40.754Z,1.90
2023-05-09T23:30:43.125Z,2.47
2023-05-09T23:33:45.629Z,2.15
2023-05-09T23:36:47.999Z,4.13
2023-05-09T23:39:50.338Z,2.43
2023-05-09T23:42:52.842Z,2.17
2023-05-09T23:45:56.715Z,2.60
2023-05-09T23:48:59.152Z,2.55
2023-05-09T23:52:01.512Z,2.43
2023-05-09T23:55:04.302Z,3.93
2023-05-09T23:58:06.687Z,2.20
